createdAt,value
2023-05-05T00:01:15.851Z,13.15
2023-05-05T00:03:44.186Z,11.58
2023-05-05T00:06:13.865Z,13.20
2023-05-05T00:08:42.146Z,13.42
2023-05-05T00:11:11.209Z,13.37
2023-05-05T00:13:39.827Z,13.21
2023-05-05T00:16:08.679Z,13.03
2023-05-05T00:18:37.614Z,13.24
2023-05-05T00:21:05.943Z,13.43
2023-05-05T00:23:35.657Z,13.58
2023-05-05T00:26:03.981Z,13.65
2023-05-05T00:28:32.238Z,13.48
2023-05-05T00:31:00.733Z,13.45
2023-05-05T00:33:28.973Z,13.30
2023-05-05T00:35:57.290Z,13.12
2023-05-05T00:38:25.533Z,13.22
2023-05-05T00:40:55.155Z,13.46
2023-05-05T00:43:23.449Z,13.26
2023-05-05T00:45:58.421Z,12.85
2023-05-05T00:48:27.049Z,12.43
2023-05-05T00:50:55.340Z,12.35
2023-05-05T00:53:24.541Z,12.60
2023-05-05T00:55:54.530Z,12.45
2023-05-05T00:58:22.954Z,12.58
2023-05-05T01:00:51.551Z,12.90
2023-05-05T01:03:19.840Z,12.93
2023-05-05T01:05:58.423Z,12.81
2023-05-05T01:08:39.636Z,13.06
2023-05-05T01:11:19.086Z,12.71
2023-05-05T01:13:56.246Z,13.26
2023-05-05T01:16:28.859Z,13.21
2023-05-05T01:19:04.704Z,12.99
2023-05-05T01:21:39.738Z,12.50
2023-05-05T01:24:49.728Z,12.43
2023-05-05T01:27:42.426Z,12.66
2023-05-05T01:30:21.991Z,12.47
2023-05-05T01:32:56.183Z,12.44
2023-05-05T01:35:31.959Z,12.65
2023-05-05T01:38:04.350Z,12.60
2023-05-05T01:40:39.031Z,12.25
2023-05-05T01:43:09.499Z,11.90
2023-05-05T01:45:41.313Z,11.64
2023-05-05T01:48:12.739Z,12.08
2023-05-05T01:50:42.992Z,12.26
2023-05-05T01:53:13.008Z,12.22
2023-05-05T01:55:42.246Z,11.85
2023-05-05T01:58:12.306Z,11.64
2023-05-05T02:00:42.279Z,11.64
2023-05-05T02:03:14.969Z,11.18
2023-05-05T02:05:44.868Z,11.31
2023-05-05T02:08:13.709Z,11.73
2023-05-05T02:10:43.006Z,12.07
2023-05-05T02:13:13.901Z,12.28
2023-05-05T02:15:43.528Z,12.47
2023-05-05T02:18:13.968Z,12.33
2023-05-05T02:20:42.994Z,12.67
2023-05-05T02:23:11.404Z,12.62
2023-05-05T02:25:43.532Z,12.29
2023-05-05T02:28:17.238Z,12.53
2023-05-05T02:30:50.675Z,12.89
2023-05-05T02:33:24.962Z,13.05
2023-05-05T02:35:55.768Z,12.85
2023-05-05T02:38:30.005Z,12.94
2023-05-05T02:41:00.665Z,12.37
2023-05-05T02:43:33.002Z,12.61
2023-05-05T02:46:01.300Z,12.90
2023-05-05T02:48:31.130Z,12.65
2023-05-05T02:50:59.440Z,12.63
2023-05-05T02:53:29.309Z,12.64
2023-05-05T02:56:11.352Z,12.24
2023-05-05T02:58:47.444Z,12.31
2023-05-05T03:01:28.007Z,12.08
2023-05-05T03:04:05.183Z,11.86
2023-05-05T03:06:40.573Z,11.86
2023-05-05T03:09:12.150Z,11.21
2023-05-05T03:11:45.625Z,11.02
2023-05-05T03:14:17.184Z,10.76
2023-05-05T03:16:46.833Z,11.24
2023-05-05T03:19:19.699Z,11.52
2023-05-05T03:21:48.752Z,11.77
2023-05-05T03:24:18.549Z,11.66
2023-05-05T03:26:48.291Z,11.41
2023-05-05T03:29:17.322Z,11.46
2023-05-05T03:31:45.791Z,11.88
2023-05-05T03:34:14.162Z,11.82
2023-05-05T03:36:43.811Z,11.49
2023-05-05T03:39:12.101Z,11.82
2023-05-05T03:41:40.471Z,11.63
2023-05-05T03:44:08.802Z,11.73
2023-05-05T03:46:37.010Z,11.63
2023-05-05T03:49:05.281Z,11.82
2023-05-05T03:51:33.565Z,11.82
2023-05-05T03:54:03.324Z,11.77
2023-05-05T03:56:31.779Z,11.62
2023-05-05T03:59:00.064Z,11.71
2023-05-05T04:01:30.001Z,12.09
2023-05-05T04:03:58.486Z,12.25
2023-05-05T04:06:26.904Z,12.47
2023-05-05T04:08:55.231Z,12.47
2023-05-05T04:11:24.858Z,12.14
2023-05-05T04:13:53.067Z,12.06
2023-05-05T04:16:21.571Z,12.30
2023-05-05T04:18:50.088Z,12.16
2023-05-05T04:21:18.281Z,12.02
2023-05-05T04:23:46.494Z,11.98
2023-05-05T04:26:14.733Z,11.85
2023-05-05T04:28:45.576Z,11.62
2023-05-05T04:31:13.982Z,11.45
2023-05-05T04:33:42.353Z,10.82
2023-05-05T04:36:10.865Z,11.74
2023-05-05T04:38:39.244Z,11.91
2023-05-05T04:41:07.761Z,12.04
2023-05-05T04:43:36.020Z,11.79
2023-05-05T04:46:06.254Z,12.02
2023-05-05T04:48:34.543Z,12.48
2023-05-05T04:51:05.896Z,12.69
2023-05-05T04:53:34.414Z,12.97
2023-05-05T04:56:02.848Z,13.17
2023-05-05T04:58:31.217Z,13.15
2023-05-05T05:00:59.657Z,12.89
2023-05-05T05:03:29.342Z,12.29
2023-05-05T05:06:15.997Z,12.77
2023-05-05T05:08:44.279Z,12.84
2023-05-05T05:11:12.742Z,13.22
2023-05-05T05:13:41.684Z,13.36
2023-05-05T05:16:09.986Z,13.20
2023-05-05T05:18:39.703Z,13.55
2023-05-05T05:21:08.163Z,13.63
2023-05-05T05:23:36.391Z,13.84
2023-05-05T05:26:05.311Z,13.95
2023-05-05T05:28:33.745Z,14.51
2023-05-05T05:31:02.513Z,14.58
2023-05-05T05:33:30.715Z,14.64
2023-05-05T05:36:00.453Z,14.47
2023-05-05T05:38:28.694Z,14.57
2023-05-05T05:40:56.927Z,14.08
2023-05-05T05:43:25.299Z,13.18
2023-05-05T05:45:53.544Z,13.28
2023-05-05T05:48:24.885Z,13.04
2023-05-05T05:50:53.462Z,13.19
2023-05-05T05:53:23.307Z,12.87
2023-05-05T05:55:51.586Z,12.60
2023-05-05T05:58:19.965Z,12.99
2023-05-05T06:00:49.435Z,13.30
2023-05-05T06:03:17.868Z,13.21
2023-05-05T06:05:46.919Z,13.26
2023-05-05T06:08:15.192Z,13.90
2023-05-05T06:10:44.813Z,14.39
2023-05-05T06:13:13.268Z,14.87
2023-05-05T06:15:41.638Z,14.50
2023-05-05T06:18:09.913Z,14.62
2023-05-05T06:20:38.246Z,15.09
2023-05-05T06:23:06.835Z,15.22
2023-05-05T06:25:35.272Z,15.50
2023-05-05T06:28:06.065Z,15.70
2023-05-05T06:30:34.320Z,16.11
2023-05-05T06:33:02.637Z,16.68
2023-05-05T06:35:32.159Z,17.03
2023-05-05T06:38:00.408Z,17.45
2023-05-05T06:40:28.738Z,17.03
2023-05-05T06:42:57.284Z,16.68
2023-05-05T06:45:27.041Z,16.90
2023-05-05T06:47:55.737Z,16.59
2023-05-05T06:50:24.081Z,16.74
2023-05-05T06:52:53.281Z,16.82
2023-05-05T06:55:22.084Z,16.82
2023-05-05T06:57:50.522Z,17.24
2023-05-05T07:00:19.719Z,17.69
2023-05-05T07:02:49.340Z,17.83
2023-05-05T07:05:17.716Z,17.99
2023-05-05T07:07:52.773Z,19.59
2023-05-05T07:10:21.549Z,18.46
2023-05-05T07:12:50.155Z,19.35
2023-05-05T07:15:28.025Z,18.75
2023-05-05T07:17:58.876Z,19.10
2023-05-05T07:20:27.439Z,20.30
2023-05-05T07:22:55.944Z,20.92
2023-05-05T07:25:24.571Z,20.35
2023-05-05T07:27:54.182Z,21.16
2023-05-05T07:30:22.930Z,20.83
2023-05-05T07:32:51.667Z,21.20
2023-05-05T07:35:21.321Z,21.55
2023-05-05T07:37:49.563Z,20.88
2023-05-05T07:40:18.041Z,20.07
2023-05-05T07:42:47.518Z,19.16
2023-05-05T07:45:16.731Z,18.80
2023-05-05T07:47:45.069Z,18.51
2023-05-05T07:50:13.337Z,18.09
2023-05-05T07:52:48.405Z,18.85
2023-05-05T07:55:22.406Z,18.31
2023-05-05T07:57:50.919Z,17.85
2023-05-05T08:00:21.831Z,17.73
2023-05-05T08:02:50.331Z,18.66
2023-05-05T08:05:18.774Z,18.86
2023-05-05T08:07:48.465Z,19.09
2023-05-05T08:10:17.043Z,18.97
2023-05-05T08:12:45.539Z,19.34
2023-05-05T08:15:14.284Z,19.34
2023-05-05T08:17:47.762Z,19.32
2023-05-05T08:20:16.572Z,19.16
2023-05-05T08:22:45.311Z,19.40
2023-05-05T08:25:15.596Z,19.02
2023-05-05T08:27:44.554Z,19.03
2023-05-05T08:30:13.664Z,19.06
2023-05-05T08:32:42.046Z,19.51
2023-05-05T08:35:11.276Z,19.91
2023-05-05T08:37:39.871Z,20.21
2023-05-05T08:40:09.497Z,20.94
2023-05-05T08:42:39.712Z,20.84
2023-05-05T08:45:10.449Z,20.90
2023-05-05T08:47:40.400Z,19.97
2023-05-05T08:50:12.406Z,20.09
2023-05-05T08:52:44.337Z,20.47
2023-05-05T08:55:24.363Z,20.60
2023-05-05T08:57:56.148Z,20.90
2023-05-05T09:00:26.636Z,21.23
2023-05-05T09:02:57.289Z,20.76
2023-05-05T09:05:26.529Z,20.38
2023-05-05T09:07:55.019Z,20.87
2023-05-05T09:10:23.350Z,21.21
2023-05-05T09:12:51.932Z,20.98
2023-05-05T09:15:21.710Z,21.20
2023-05-05T09:17:49.986Z,21.45
2023-05-05T09:20:18.357Z,21.26
2023-05-05T09:22:48.037Z,21.44
2023-05-05T09:25:18.471Z,21.27
2023-05-05T09:27:49.367Z,21.25
2023-05-05T09:30:19.178Z,21.52
2023-05-05T09:32:50.555Z,21.01
2023-05-05T09:35:19.801Z,20.62
2023-05-05T09:37:48.496Z,20.86
2023-05-05T09:40:21.179Z,20.38
2023-05-05T09:42:49.620Z,20.31
2023-05-05T09:45:28.446Z,20.23
2023-05-05T09:48:00.211Z,20.17
2023-05-05T09:50:31.058Z,20.36
2023-05-05T09:53:00.950Z,20.77
2023-05-05T09:55:31.288Z,20.36
2023-05-05T09:58:18.089Z,20.01
2023-05-05T10:00:46.748Z,19.99
2023-05-05T10:03:16.567Z,20.46
2023-05-05T10:05:52.450Z,20.70
2023-05-05T10:08:22.190Z,20.85
2023-05-05T10:10:55.898Z,20.63
2023-05-05T10:13:26.220Z,20.89
2023-05-05T10:15:55.954Z,21.08
2023-05-05T10:18:26.798Z,20.83
2023-05-05T10:20:59.442Z,20.81
2023-05-05T10:23:35.156Z,21.13
2023-05-05T10:26:06.982Z,21.06
2023-05-05T10:28:37.915Z,21.15
2023-05-05T10:31:24.526Z,21.39
2023-05-05T10:34:01.649Z,21.17
2023-05-05T10:36:31.895Z,21.04
2023-05-05T10:39:01.871Z,21.37
2023-05-05T10:41:31.630Z,21.03
2023-05-05T10:44:02.179Z,21.31
2023-05-05T10:46:32.095Z,21.27
2023-05-05T10:49:13.242Z,20.83
2023-05-05T10:51:48.316Z,21.72
2023-05-05T10:54:24.584Z,21.86
2023-05-05T10:56:53.769Z,21.33
2023-05-05T10:59:44.052Z,21.37
2023-05-05T11:02:26.535Z,21.22
2023-05-05T11:05:10.911Z,21.40
2023-05-05T11:07:39.584Z,21.29
2023-05-05T11:10:09.094Z,21.11
2023-05-05T11:13:16.131Z,21.75
2023-05-05T11:15:44.504Z,21.82
2023-05-05T11:18:37.225Z,22.04
2023-05-05T11:21:17.093Z,21.82
2023-05-05T11:23:50.125Z,22.04
2023-05-05T11:26:19.804Z,22.20
2023-05-05T11:28:59.802Z,21.98
2023-05-05T11:31:28.459Z,21.89
2023-05-05T11:33:56.767Z,21.70
2023-05-05T11:36:41.742Z,21.42
2023-05-05T11:39:13.211Z,21.77
2023-05-05T11:42:33.138Z,22.32
2023-05-05T11:45:01.663Z,21.86
2023-05-05T11:47:34.048Z,22.16
2023-05-05T11:50:23.123Z,22.10
2023-05-05T11:52:52.970Z,21.99
2023-05-05T11:55:23.466Z,21.99
2023-05-05T11:57:51.933Z,22.01
2023-05-05T12:00:49.703Z,21.79
2023-05-05T12:03:18.172Z,22.03
2023-05-05T12:05:48.896Z,22.38
2023-05-05T12:08:19.289Z,22.18
2023-05-05T12:10:47.552Z,21.86
2023-05-05T12:13:21.940Z,22.11
2023-05-05T12:15:50.247Z,22.33
2023-05-05T12:18:22.073Z,21.72
2023-05-05T12:20:51.318Z,21.64
2023-05-05T12:23:21.429Z,21.83
2023-05-05T12:25:50.468Z,21.34
2023-05-05T12:28:18.814Z,21.92
2023-05-05T12:30:58.072Z,22.22
2023-05-05T12:33:26.639Z,22.41
2023-05-05T12:35:54.994Z,22.35
2023-05-05T12:38:24.644Z,22.83
2023-05-05T12:40:54.866Z,22.87
2023-05-05T12:43:27.886Z,23.08
2023-05-05T12:46:03.822Z,22.23
2023-05-05T12:48:32.238Z,22.28
2023-05-05T12:51:27.456Z,22.03
2023-05-05T12:54:06.554Z,22.46
2023-05-05T12:56:36.766Z,22.76
2023-05-05T12:59:06.705Z,22.80
2023-05-05T13:01:35.569Z,22.43
2023-05-05T13:04:08.348Z,23.01
2023-05-05T13:06:37.897Z,22.45
2023-05-05T13:09:09.120Z,22.54
2023-05-05T13:11:38.510Z,23.28
2023-05-05T13:14:08.281Z,24.26
2023-05-05T13:16:36.583Z,24.34
2023-05-05T13:19:05.039Z,23.75
2023-05-05T13:21:33.443Z,23.20
2023-05-05T13:24:18.981Z,23.56
2023-05-05T13:26:51.834Z,23.60
2023-05-05T13:29:20.476Z,23.76
2023-05-05T13:31:49.070Z,24.01
2023-05-05T13:34:17.559Z,25.07
2023-05-05T13:36:46.200Z,25.32
2023-05-05T13:39:14.527Z,25.41
2023-05-05T13:41:44.816Z,26.18
2023-05-05T13:44:15.187Z,26.42
2023-05-05T13:46:43.692Z,25.01
2023-05-05T13:49:12.044Z,26.07
2023-05-05T13:51:40.444Z,26.60
2023-05-05T13:54:08.804Z,25.93
2023-05-05T13:56:37.243Z,24.59
2023-05-05T13:59:05.644Z,24.10
2023-05-05T14:01:35.440Z,24.64
2023-05-05T14:04:05.692Z,24.79
2023-05-05T14:06:35.877Z,24.93
2023-05-05T14:09:06.417Z,25.15
2023-05-05T14:11:34.896Z,24.84
2023-05-05T14:14:03.517Z,25.39
2023-05-05T14:16:31.828Z,24.51
2023-05-05T14:19:01.691Z,24.81
2023-05-05T14:21:30.015Z,25.44
2023-05-05T14:23:58.253Z,24.35
2023-05-05T14:26:27.479Z,23.41
2023-05-05T14:28:55.932Z,23.18
2023-05-05T14:31:24.441Z,23.55
2023-05-05T14:33:53.514Z,23.40
2023-05-05T14:36:23.634Z,23.17
2023-05-05T14:38:51.900Z,22.92
2023-05-05T14:41:20.396Z,22.77
2023-05-05T14:43:48.672Z,22.97
2023-05-05T14:46:16.946Z,22.77
2023-05-05T14:48:46.549Z,22.84
2023-05-05T14:51:15.822Z,22.96
2023-05-05T14:53:45.507Z,22.36
2023-05-05T14:56:13.852Z,22.92
2023-05-05T14:58:42.088Z,23.27
2023-05-05T15:01:10.446Z,23.19
2023-05-05T15:03:38.953Z,22.45
2023-05-05T15:06:08.513Z,22.73
2023-05-05T15:08:39.115Z,23.03
2023-05-05T15:11:09.070Z,23.21
2023-05-05T15:13:38.791Z,22.77
2023-05-05T15:16:07.956Z,22.21
2023-05-05T15:18:36.226Z,22.51
2023-05-05T15:21:04.859Z,22.75
2023-05-05T15:23:33.210Z,22.16
2023-05-05T15:26:01.622Z,22.28
2023-05-05T15:28:31.436Z,21.76
2023-05-05T15:31:01.999Z,21.81
2023-05-05T15:33:31.612Z,22.25
2023-05-05T15:36:00.451Z,21.75
2023-05-05T15:38:29.423Z,21.79
2023-05-05T15:40:57.713Z,22.02
2023-05-05T15:43:25.943Z,21.75
2023-05-05T15:45:56.593Z,21.35
2023-05-05T15:48:24.872Z,21.56
2023-05-05T15:50:53.082Z,21.73
2023-05-05T15:53:21.506Z,21.88
2023-05-05T15:55:49.738Z,21.67
2023-05-05T15:58:17.950Z,21.40
2023-05-05T16:00:46.242Z,21.11
2023-05-05T16:03:16.055Z,21.39
2023-05-05T16:05:44.458Z,21.36
2023-05-05T16:08:12.731Z,21.38
2023-05-05T16:10:40.994Z,21.22
2023-05-05T16:13:09.304Z,20.80
2023-05-05T16:15:38.017Z,20.66
2023-05-05T16:18:06.530Z,20.54
2023-05-05T16:20:36.319Z,20.52
2023-05-05T16:23:04.599Z,20.60
2023-05-05T16:25:32.795Z,20.72
2023-05-05T16:28:01.901Z,20.30
2023-05-05T16:30:30.463Z,19.94
2023-05-05T16:32:58.806Z,19.46
2023-05-05T16:35:27.012Z,19.46
2023-05-05T16:37:56.709Z,19.46
2023-05-05T16:40:25.187Z,19.61
2023-05-05T16:42:53.411Z,19.22
2023-05-05T16:45:21.634Z,19.19
2023-05-05T16:47:49.965Z,18.64
2023-05-05T16:50:18.576Z,18.77
2023-05-05T16:52:46.828Z,18.80
2023-05-05T16:55:16.740Z,19.08
2023-05-05T16:57:45.031Z,18.87
2023-05-05T17:00:14.645Z,18.42
2023-05-05T17:02:43.026Z,17.95
2023-05-05T17:05:11.691Z,18.21
2023-05-05T17:07:40.131Z,18.23
2023-05-05T17:10:09.793Z,17.97
2023-05-05T17:12:39.410Z,18.34
2023-05-05T17:15:09.402Z,18.30
2023-05-05T17:17:38.011Z,18.43
2023-05-05T17:20:07.847Z,17.91
2023-05-05T17:22:36.421Z,17.75
2023-05-05T17:25:05.312Z,17.71
2023-05-05T17:27:33.609Z,17.37
2023-05-05T17:30:03.255Z,17.32
2023-05-05T17:32:31.604Z,17.61
2023-05-05T17:34:59.907Z,17.33
2023-05-05T17:37:28.533Z,16.64
2023-05-05T17:39:56.807Z,16.82
2023-05-05T17:42:27.159Z,16.01
2023-05-05T17:44:55.406Z,16.36
2023-05-05T17:47:25.391Z,16.38
2023-05-05T17:49:54.850Z,16.37
2023-05-05T17:52:23.362Z,16.44
2023-05-05T17:54:53.803Z,16.07
2023-05-05T17:57:22.874Z,16.17
2023-05-05T17:59:53.607Z,16.13
2023-05-05T18:02:22.619Z,15.93
2023-05-05T18:04:52.435Z,15.83
2023-05-05T18:07:21.037Z,15.60
2023-05-05T18:09:49.390Z,15.55
2023-05-05T18:12:17.915Z,15.56
2023-05-05T18:14:46.754Z,15.55
2023-05-05T18:17:15.352Z,15.23
2023-05-05T18:19:46.599Z,15.40
2023-05-05T18:22:18.394Z,15.86
2023-05-05T18:24:47.778Z,15.97
2023-05-05T18:27:16.166Z,15.47
2023-05-05T18:29:44.548Z,15.66
2023-05-05T18:32:12.811Z,15.29
2023-05-05T18:34:41.037Z,15.20
2023-05-05T18:37:09.277Z,15.48
2023-05-05T18:39:39.312Z,15.59
2023-05-05T18:42:08.108Z,15.41
2023-05-05T18:44:36.418Z,15.47
2023-05-05T18:47:04.703Z,15.56
2023-05-05T18:49:33.070Z,15.48
2023-05-05T18:52:01.265Z,15.47
2023-05-05T18:54:49.290Z,15.32
2023-05-05T18:57:17.551Z,15.17
2023-05-05T18:59:45.807Z,15.25
2023-05-05T19:02:14.142Z,15.58
2023-05-05T19:04:42.412Z,15.86
2023-05-05T19:07:14.506Z,15.83
2023-05-05T19:09:50.779Z,15.92
2023-05-05T19:12:19.028Z,15.96
2023-05-05T19:14:47.240Z,16.07
2023-05-05T19:17:15.583Z,16.04
2023-05-05T19:19:43.926Z,15.52
2023-05-05T19:22:12.186Z,15.91
2023-05-05T19:24:40.447Z,16.04
2023-05-05T19:27:15.376Z,16.18
2023-05-05T19:29:45.287Z,16.38
2023-05-05T19:32:13.678Z,16.21
2023-05-05T19:34:42.483Z,15.72
2023-05-05T19:37:10.778Z,15.48
2023-05-05T19:39:39.064Z,15.40
2023-05-05T19:42:09.017Z,15.73
2023-05-05T19:44:38.766Z,16.09
2023-05-05T19:47:07.235Z,16.30
2023-05-05T19:49:36.226Z,16.20
2023-05-05T19:52:05.037Z,16.17
2023-05-05T19:54:33.293Z,16.20
2023-05-05T19:57:02.348Z,16.27
2023-05-05T19:59:30.804Z,16.42
2023-05-05T20:02:00.507Z,16.36
2023-05-05T20:04:29.035Z,16.15
2023-05-05T20:06:57.446Z,16.19
2023-05-05T20:09:25.748Z,16.24
2023-05-05T20:11:54.257Z,15.78
2023-05-05T20:14:22.441Z,15.80
2023-05-05T20:16:51.022Z,16.09
2023-05-05T20:19:20.839Z,16.20
2023-05-05T20:21:49.065Z,16.17
2023-05-05T20:24:18.123Z,16.32
2023-05-05T20:26:46.563Z,16.40
2023-05-05T20:29:15.316Z,16.44
2023-05-05T20:31:43.700Z,16.42
2023-05-05T20:34:11.912Z,16.43
2023-05-05T20:36:41.525Z,16.39
2023-05-05T20:39:09.783Z,16.43
2023-05-05T20:41:40.485Z,16.35
2023-05-05T20:44:09.392Z,15.60
2023-05-05T20:46:37.742Z,15.86
2023-05-05T20:49:06.028Z,15.49
2023-05-05T20:51:35.235Z,15.53
2023-05-05T20:54:05.839Z,15.81
2023-05-05T20:56:34.025Z,15.55
2023-05-05T20:59:02.298Z,15.28
2023-05-05T21:01:30.643Z,15.44
2023-05-05T21:04:00.540Z,15.78
2023-05-05T21:06:28.701Z,15.97
2023-05-05T21:08:56.936Z,15.98
2023-05-05T21:11:26.608Z,16.11
2023-05-05T21:13:55.066Z,16.14
2023-05-05T21:16:23.324Z,16.17
2023-05-05T21:18:51.653Z,16.27
2023-05-05T21:21:19.941Z,16.07
2023-05-05T21:23:48.243Z,16.11
2023-05-05T21:26:16.648Z,15.99
2023-05-05T21:28:46.634Z,15.95
2023-05-05T21:31:21.734Z,15.94
2023-05-05T21:33:50.683Z,16.05
2023-05-05T21:36:19.636Z,16.07
2023-05-05T21:38:47.860Z,16.07
2023-05-05T21:41:17.342Z,15.66
2023-05-05T21:43:46.920Z,14.89
2023-05-05T21:46:17.261Z,14.89
2023-05-05T21:48:47.816Z,14.78
2023-05-05T21:51:16.076Z,14.83
2023-05-05T21:53:44.351Z,14.57
2023-05-05T21:56:12.730Z,14.34
2023-05-05T21:58:41.336Z,14.44
2023-05-05T22:01:11.025Z,14.82
2023-05-05T22:03:39.406Z,14.96
2023-05-05T22:06:08.048Z,15.08
2023-05-05T22:08:36.219Z,15.05
2023-05-05T22:11:04.502Z,14.95
2023-05-05T22:13:32.705Z,14.63
2023-05-05T22:16:01.011Z,14.85
2023-05-05T22:18:30.650Z,14.87
2023-05-05T22:20:58.984Z,14.94
2023-05-05T22:23:27.327Z,15.03
2023-05-05T22:25:55.664Z,15.10
2023-05-05T22:28:24.377Z,15.13
2023-05-05T22:30:52.659Z,14.94
2023-05-05T22:33:20.908Z,15.02
2023-05-05T22:35:50.567Z,14.94
2023-05-05T22:38:18.867Z,14.50
2023-05-05T22:40:47.316Z,14.95
2023-05-05T22:43:15.537Z,14.99
2023-05-05T22:45:44.558Z,14.83
2023-05-05T22:48:12.766Z,14.86
2023-05-05T22:50:41.474Z,14.74
2023-05-05T22:53:11.099Z,14.69
2023-05-05T22:55:39.377Z,14.53
2023-05-05T22:58:07.671Z,14.77
2023-05-05T23:00:35.946Z,14.84
2023-05-05T23:03:04.246Z,14.93
2023-05-05T23:05:34.478Z,15.02
2023-05-05T23:08:02.816Z,14.87
2023-05-05T23:10:32.462Z,14.76
2023-05-05T23:13:00.722Z,14.58
2023-05-05T23:15:29.055Z,14.70
2023-05-05T23:17:57.426Z,14.45
2023-05-05T23:20:25.912Z,14.34
2023-05-05T23:22:54.091Z,14.23
2023-05-05T23:25:22.492Z,14.21
2023-05-05T23:27:52.255Z,14.12
2023-05-05T23:30:20.626Z,14.25
2023-05-05T23:32:48.979Z,14.18
2023-05-05T23:35:17.273Z,14.45
2023-05-05T23:37:45.481Z,14.36
2023-05-05T23:40:13.750Z,14.57
2023-05-05T23:42:41.980Z,14.41
2023-05-05T23:45:12.725Z,14.01
2023-05-05T23:47:41.053Z,14.65
2023-05-05T23:50:10.601Z,14.78
2023-05-05T23:52:38.917Z,14.65
2023-05-05T23:55:08.457Z,14.58
2023-05-05T23:57:37.202Z,14.67
